sensor_id;sensor_type;location;lat;lon;timestamp;P1;durP1;ratioP1;P2;durP2;ratioP2
18677;SDS011;9469;51.114;13.914;2024-02-15T00:05:05;2.20;;;1.67;;
18677;SDS011;9469;51.114;13.914;2024-02-15T00:10:13;3.57;;;2.00;;
18677;SDS011;9469;51.114;13.914;2024-02-15T00:15:19;3.10;;;2.20;;
18677;SDS011;9469;51.114;13.914;2024-02-15T00:20:25;2.47;;;2.00;;
18677;SDS011;9469;51.114;13.914;2024-02-15T00:25:33;2.57;;;2.37;;
18677;SDS011;9469;51.114;13.914;2024-02-15T00:30:38;2.67;;;2.33;;
18677;SDS011;9469;51.114;13.914;2024-02-15T00:35:45;2.67;;;2.20;;
18677;SDS011;9469;51.114;13.914;2024-02-15T00:40:59;2.63;;;2.40;;
18677;SDS011;9469;51.114;13.914;2024-02-15T00:46:04;2.30;;;2.10;;
18677;SDS011;9469;51.114;13.914;2024-02-15T00:51:11;4.77;;;2.90;;
18677;SDS011;9469;51.114;13.914;2024-02-15T00:56:18;3.87;;;3.17;;
18677;SDS011;9469;51.114;13.914;2024-02-15T01:01:24;3.17;;;2.67;;
18677;SDS011;9469;51.114;13.914;2024-02-15T01:06:29;4.37;;;2.97;;
18677;SDS011;9469;51.114;13.914;2024-02-15T01:11:37;5.70;;;3.27;;
18677;SDS011;9469;51.114;13.914;2024-02-15T01:16:42;5.27;;;3.63;;
18677;SDS011;9469;51.114;13.914;2024-02-15T01:21:48;6.37;;;3.90;;
18677;SDS011;9469;51.114;13.914;2024-02-15T01:26:57;5.40;;;4.03;;
18677;SDS011;9469;51.114;13.914;2024-02-15T01:32:03;5.63;;;4.00;;
18677;SDS011;9469;51.114;13.914;2024-02-15T01:37:09;4.70;;;3.80;;
18677;SDS011;9469;51.114;13.914;2024-02-15T01:42:18;4.17;;;3.60;;
18677;SDS011;9469;51.114;13.914;2024-02-15T01:47:24;5.93;;;3.47;;
18677;SDS011;9469;51.114;13.914;2024-02-15T01:52:29;5.60;;;3.90;;
18677;SDS011;9469;51.114;13.914;2024-02-15T01:57:38;4.03;;;3.50;;
18677;SDS011;9469;51.114;13.914;2024-02-15T02:02:44;3.83;;;3.10;;
18677;SDS011;9469;51.114;13.914;2024-02-15T02:07:50;4.80;;;3.67;;
18677;SDS011;9469;51.114;13.914;2024-02-15T02:12:58;4.83;;;3.73;;
18677;SDS011;9469;51.114;13.914;2024-02-15T02:18:04;6.50;;;4.27;;
18677;SDS011;9469;51.114;13.914;2024-02-15T02:23:13;4.83;;;3.40;;
18677;SDS011;9469;51.114;13.914;2024-02-15T02:28:24;6.03;;;4.33;;
18677;SDS011;9469;51.114;13.914;2024-02-15T02:33:29;5.23;;;4.50;;
18677;SDS011;9469;51.114;13.914;2024-02-15T02:38:38;9.17;;;5.03;;
18677;SDS011;9469;51.114;13.914;2024-02-15T02:43:49;7.17;;;4.50;;
18677;SDS011;9469;51.114;13.914;2024-02-15T02:48:55;6.17;;;5.03;;
18677;SDS011;9469;51.114;13.914;2024-02-15T02:54:02;7.83;;;5.47;;
18677;SDS011;9469;51.114;13.914;2024-02-15T02:59:11;9.40;;;5.87;;
18677;SDS011;9469;51.114;13.914;2024-02-15T03:04:17;7.43;;;6.10;;
18677;SDS011;9469;51.114;13.914;2024-02-15T03:09:24;7.33;;;5.53;;
18677;SDS011;9469;51.114;13.914;2024-02-15T03:14:38;9.20;;;5.80;;
18677;SDS011;9469;51.114;13.914;2024-02-15T03:19:44;9.40;;;5.90;;
18677;SDS011;9469;51.114;13.914;2024-02-15T03:24:51;8.30;;;5.20;;
18677;SDS011;9469;51.114;13.914;2024-02-15T03:29:59;8.33;;;5.73;;
18677;SDS011;9469;51.114;13.914;2024-02-15T03:35:06;7.47;;;5.57;;
18677;SDS011;9469;51.114;13.914;2024-02-15T03:40:11;8.23;;;5.60;;
18677;SDS011;9469;51.114;13.914;2024-02-15T03:45:20;6.57;;;5.80;;
18677;SDS011;9469;51.114;13.914;2024-02-15T03:50:28;5.70;;;4.33;;
18677;SDS011;9469;51.114;13.914;2024-02-15T03:55:34;4.40;;;2.93;;
18677;SDS011;9469;51.114;13.914;2024-02-15T04:00:42;2.63;;;2.40;;
18677;SDS011;9469;51.114;13.914;2024-02-15T04:05:47;3.10;;;2.80;;
18677;SDS011;9469;51.114;13.914;2024-02-15T04:10:52;4.90;;;4.37;;
18677;SDS011;9469;51.114;13.914;2024-02-15T04:16:06;5.73;;;5.03;;
18677;SDS011;9469;51.114;13.914;2024-02-15T04:21:11;5.87;;;4.60;;
18677;SDS011;9469;51.114;13.914;2024-02-15T04:26:21;9.80;;;6.83;;
18677;SDS011;9469;51.114;13.914;2024-02-15T04:31:31;8.07;;;5.17;;
18677;SDS011;9469;51.114;13.914;2024-02-15T04:36:41;7.77;;;5.10;;
18677;SDS011;9469;51.114;13.914;2024-02-15T04:41:51;5.13;;;4.03;;
18677;SDS011;9469;51.114;13.914;2024-02-15T04:47:00;3.00;;;2.67;;
18677;SDS011;9469;51.114;13.914;2024-02-15T04:52:10;5.63;;;3.67;;
18677;SDS011;9469;51.114;13.914;2024-02-15T04:57:16;5.17;;;3.77;;
18677;SDS011;9469;51.114;13.914;2024-02-15T05:02:25;5.70;;;4.30;;
18677;SDS011;9469;51.114;13.914;2024-02-15T05:07:30;3.00;;;2.70;;
18677;SDS011;9469;51.114;13.914;2024-02-15T05:12:37;2.63;;;2.43;;
18677;SDS011;9469;51.114;13.914;2024-02-15T05:17:47;2.77;;;2.53;;
18677;SDS011;9469;51.114;13.914;2024-02-15T05:22:56;5.33;;;3.03;;
18677;SDS011;9469;51.114;13.914;2024-02-15T05:28:06;6.57;;;3.90;;
18677;SDS011;9469;51.114;13.914;2024-02-15T05:33:17;4.77;;;3.60;;
18677;SDS011;9469;51.114;13.914;2024-02-15T05:38:23;6.30;;;3.80;;
18677;SDS011;9469;51.114;13.914;2024-02-15T05:43:31;2.97;;;2.47;;
18677;SDS011;9469;51.114;13.914;2024-02-15T05:48:41;2.50;;;2.30;;
18677;SDS011;9469;51.114;13.914;2024-02-15T05:53:47;6.40;;;4.67;;
18677;SDS011;9469;51.114;13.914;2024-02-15T05:58:59;4.23;;;3.20;;
18677;SDS011;9469;51.114;13.914;2024-02-15T06:04:15;4.23;;;2.70;;
18677;SDS011;9469;51.114;13.914;2024-02-15T06:09:21;3.90;;;3.50;;
18677;SDS011;9469;51.114;13.914;2024-02-15T06:14:29;4.30;;;2.80;;
18677;SDS011;9469;51.114;13.914;2024-02-15T06:19:41;3.20;;;2.00;;
18677;SDS011;9469;51.114;13.914;2024-02-15T06:25:00;3.43;;;2.13;;
18677;SDS011;9469;51.114;13.914;2024-02-15T06:30:05;4.87;;;2.80;;
18677;SDS011;9469;51.114;13.914;2024-02-15T06:35:28;4.13;;;3.00;;
18677;SDS011;9469;51.114;13.914;2024-02-15T06:40:48;3.73;;;2.73;;
18677;SDS011;9469;51.114;13.914;2024-02-15T06:45:53;4.27;;;2.40;;
18677;SDS011;9469;51.114;13.914;2024-02-15T06:51:01;3.00;;;2.17;;
18677;SDS011;9469;51.114;13.914;2024-02-15T06:56:08;2.50;;;2.10;;
18677;SDS011;9469;51.114;13.914;2024-02-15T07:01:14;2.40;;;2.20;;
18677;SDS011;9469;51.114;13.914;2024-02-15T07:06:23;2.57;;;2.20;;
18677;SDS011;9469;51.114;13.914;2024-02-15T07:11:31;2.47;;;2.27;;
18677;SDS011;9469;51.114;13.914;2024-02-15T07:16:39;3.40;;;2.63;;
18677;SDS011;9469;51.114;13.914;2024-02-15T07:22:17;6.47;;;3.73;;
18677;SDS011;9469;51.114;13.914;2024-02-15T07:27:22;4.57;;;3.90;;
18677;SDS011;9469;51.114;13.914;2024-02-15T07:32:35;6.30;;;4.77;;
18677;SDS011;9469;51.114;13.914;2024-02-15T07:38:01;4.53;;;4.00;;
18677;SDS011;9469;51.114;13.914;2024-02-15T07:43:24;4.50;;;3.90;;
18677;SDS011;9469;51.114;13.914;2024-02-15T07:48:31;5.30;;;4.27;;
18677;SDS011;9469;51.114;13.914;2024-02-15T07:53:42;4.17;;;3.37;;
18677;SDS011;9469;51.114;13.914;2024-02-15T07:58:53;4.20;;;3.80;;
18677;SDS011;9469;51.114;13.914;2024-02-15T08:04:01;4.30;;;3.57;;
18677;SDS011;9469;51.114;13.914;2024-02-15T08:09:13;4.83;;;4.10;;
18677;SDS011;9469;51.114;13.914;2024-02-15T08:14:19;8.07;;;4.47;;
18677;SDS011;9469;51.114;13.914;2024-02-15T08:19:25;5.90;;;4.07;;
18677;SDS011;9469;51.114;13.914;2024-02-15T08:24:36;5.83;;;4.23;;
18677;SDS011;9469;51.114;13.914;2024-02-15T08:29:41;6.90;;;5.20;;
18677;SDS011;9469;51.114;13.914;2024-02-15T08:34:47;5.67;;;5.10;;
18677;SDS011;9469;51.114;13.914;2024-02-15T08:39:55;6.53;;;5.10;;
18677;SDS011;9469;51.114;13.914;2024-02-15T08:45:01;20.90;;;10.23;;
18677;SDS011;9469;51.114;13.914;2024-02-15T08:50:07;14.03;;;7.73;;
18677;SDS011;9469;51.114;13.914;2024-02-15T08:55:16;6.83;;;5.23;;
18677;SDS011;9469;51.114;13.914;2024-02-15T09:00:28;7.90;;;5.07;;
18677;SDS011;9469;51.114;13.914;2024-02-15T09:05:35;5.23;;;4.43;;
18677;SDS011;9469;51.114;13.914;2024-02-15T09:10:45;4.10;;;2.97;;
18677;SDS011;9469;51.114;13.914;2024-02-15T09:15:50;5.83;;;4.33;;
18677;SDS011;9469;51.114;13.914;2024-02-15T09:20:56;8.00;;;5.07;;
18677;SDS011;9469;51.114;13.914;2024-02-15T09:26:05;3.83;;;3.00;;
18677;SDS011;9469;51.114;13.914;2024-02-15T09:31:12;2.10;;;1.87;;
18677;SDS011;9469;51.114;13.914;2024-02-15T09:36:18;2.00;;;1.80;;
18677;SDS011;9469;51.114;13.914;2024-02-15T09:41:26;2.07;;;1.73;;
18677;SDS011;9469;51.114;13.914;2024-02-15T09:46:32;2.07;;;1.87;;
18677;SDS011;9469;51.114;13.914;2024-02-15T09:51:40;2.80;;;2.33;;
18677;SDS011;9469;51.114;13.914;2024-02-15T09:56:49;1.83;;;1.57;;
18677;SDS011;9469;51.114;13.914;2024-02-15T10:01:58;2.40;;;2.00;;
18677;SDS011;9469;51.114;13.914;2024-02-15T10:07:04;4.03;;;2.50;;
18677;SDS011;9469;51.114;13.914;2024-02-15T10:12:14;2.73;;;2.37;;
18677;SDS011;9469;51.114;13.914;2024-02-15T10:17:19;3.47;;;2.43;;
18677;SDS011;9469;51.114;13.914;2024-02-15T10:22:27;5.37;;;4.10;;
18677;SDS011;9469;51.114;13.914;2024-02-15T10:27:39;6.43;;;3.93;;
18677;SDS011;9469;51.114;13.914;2024-02-15T10:32:49;6.73;;;4.53;;
18677;SDS011;9469;51.114;13.914;2024-02-15T10:38:08;4.97;;;4.13;;
18677;SDS011;9469;51.114;13.914;2024-02-15T10:43:23;5.33;;;4.50;;
18677;SDS011;9469;51.114;13.914;2024-02-15T10:48:34;7.23;;;4.50;;
18677;SDS011;9469;51.114;13.914;2024-02-15T10:53:44;6.07;;;5.13;;
18677;SDS011;9469;51.114;13.914;2024-02-15T10:59:11;6.73;;;4.73;;
18677;SDS011;9469;51.114;13.914;2024-02-15T11:04:40;6.20;;;4.63;;
18677;SDS011;9469;51.114;13.914;2024-02-15T11:09:47;8.53;;;5.47;;
18677;SDS011;9469;51.114;13.914;2024-02-15T11:14:58;7.00;;;5.13;;
18677;SDS011;9469;51.114;13.914;2024-02-15T11:20:05;7.73;;;5.97;;
18677;SDS011;9469;51.114;13.914;2024-02-15T11:25:14;8.40;;;5.00;;
18677;SDS011;9469;51.114;13.914;2024-02-15T11:30:42;6.17;;;4.53;;
18677;SDS011;9469;51.114;13.914;2024-02-15T11:36:01;7.30;;;5.13;;
18677;SDS011;9469;51.114;13.914;2024-02-15T11:41:10;9.17;;;5.87;;
18677;SDS011;9469;51.114;13.914;2024-02-15T11:46:19;7.83;;;5.93;;
18677;SDS011;9469;51.114;13.914;2024-02-15T11:51:29;7.40;;;6.20;;
18677;SDS011;9469;51.114;13.914;2024-02-15T11:56:49;7.77;;;6.00;;
18677;SDS011;9469;51.114;13.914;2024-02-15T12:02:09;9.03;;;5.17;;
18677;SDS011;9469;51.114;13.914;2024-02-15T12:07:27;7.57;;;5.33;;
18677;SDS011;9469;51.114;13.914;2024-02-15T12:12:50;7.73;;;5.47;;
18677;SDS011;9469;51.114;13.914;2024-02-15T12:18:18;6.97;;;4.40;;
18677;SDS011;9469;51.114;13.914;2024-02-15T12:23:37;5.67;;;4.20;;
18677;SDS011;9469;51.114;13.914;2024-02-15T12:28:43;3.57;;;2.77;;
18677;SDS011;9469;51.114;13.914;2024-02-15T12:34:02;3.77;;;3.20;;
18677;SDS011;9469;51.114;13.914;2024-02-15T12:39:09;5.00;;;3.33;;
18677;SDS011;9469;51.114;13.914;2024-02-15T12:44:22;5.33;;;3.27;;
18677;SDS011;9469;51.114;13.914;2024-02-15T12:49:32;4.43;;;3.60;;
18677;SDS011;9469;51.114;13.914;2024-02-15T12:54:38;3.93;;;3.13;;
18677;SDS011;9469;51.114;13.914;2024-02-15T12:59:46;4.80;;;2.63;;
18677;SDS011;9469;51.114;13.914;2024-02-15T13:04:59;3.27;;;2.83;;
18677;SDS011;9469;51.114;13.914;2024-02-15T13:10:06;5.93;;;2.90;;
18677;SDS011;9469;51.114;13.914;2024-02-15T13:15:13;3.63;;;2.47;;
18677;SDS011;9469;51.114;13.914;2024-02-15T13:20:26;3.13;;;2.80;;
18677;SDS011;9469;51.114;13.914;2024-02-15T13:25:42;2.90;;;2.60;;
18677;SDS011;9469;51.114;13.914;2024-02-15T13:30:50;3.37;;;2.20;;
18677;SDS011;9469;51.114;13.914;2024-02-15T13:36:01;4.30;;;1.90;;
18677;SDS011;9469;51.114;13.914;2024-02-15T13:41:17;5.63;;;1.80;;
18677;SDS011;9469;51.114;13.914;2024-02-15T13:46:22;4.10;;;1.63;;
18677;SDS011;9469;51.114;13.914;2024-02-15T13:51:30;3.03;;;1.93;;
18677;SDS011;9469;51.114;13.914;2024-02-15T13:56:42;2.67;;;1.97;;
18677;SDS011;9469;51.114;13.914;2024-02-15T14:01:49;2.20;;;1.53;;
18677;SDS011;9469;51.114;13.914;2024-02-15T14:06:58;3.33;;;1.40;;
18677;SDS011;9469;51.114;13.914;2024-02-15T14:12:05;1.10;;;1.00;;
18677;SDS011;9469;51.114;13.914;2024-02-15T14:17:10;2.37;;;1.37;;
18677;SDS011;9469;51.114;13.914;2024-02-15T14:22:20;2.13;;;1.67;;
18677;SDS011;9469;51.114;13.914;2024-02-15T14:27:30;1.63;;;1.27;;
18677;SDS011;9469;51.114;13.914;2024-02-15T14:32:37;3.27;;;1.53;;
18677;SDS011;9469;51.114;13.914;2024-02-15T14:38:07;4.20;;;1.90;;
18677;SDS011;9469;51.114;13.914;2024-02-15T14:43:15;3.17;;;1.70;;
18677;SDS011;9469;51.114;13.914;2024-02-15T14:48:23;3.83;;;2.90;;
18677;SDS011;9469;51.114;13.914;2024-02-15T14:53:32;6.60;;;4.03;;
18677;SDS011;9469;51.114;13.914;2024-02-15T14:58:44;4.23;;;3.60;;
18677;SDS011;9469;51.114;13.914;2024-02-15T15:03:53;5.30;;;3.83;;
18677;SDS011;9469;51.114;13.914;2024-02-15T15:09:02;5.57;;;4.20;;
18677;SDS011;9469;51.114;13.914;2024-02-15T15:14:20;5.33;;;4.37;;
18677;SDS011;9469;51.114;13.914;2024-02-15T15:19:26;7.50;;;4.00;;
18677;SDS011;9469;51.114;13.914;2024-02-15T15:24:34;6.60;;;4.70;;
18677;SDS011;9469;51.114;13.914;2024-02-15T15:29:40;8.10;;;5.00;;
18677;SDS011;9469;51.114;13.914;2024-02-15T15:34:46;8.73;;;5.57;;
18677;SDS011;9469;51.114;13.914;2024-02-15T15:39:54;7.47;;;5.80;;
18677;SDS011;9469;51.114;13.914;2024-02-15T15:45:04;8.97;;;6.13;;
18677;SDS011;9469;51.114;13.914;2024-02-15T15:50:11;6.80;;;5.47;;
18677;SDS011;9469;51.114;13.914;2024-02-15T15:55:21;9.87;;;7.23;;
18677;SDS011;9469;51.114;13.914;2024-02-15T16:00:27;11.80;;;8.37;;
18677;SDS011;9469;51.114;13.914;2024-02-15T16:05:38;15.00;;;9.17;;
18677;SDS011;9469;51.114;13.914;2024-02-15T16:10:49;13.80;;;9.93;;
18677;SDS011;9469;51.114;13.914;2024-02-15T16:15:57;12.67;;;10.10;;
18677;SDS011;9469;51.114;13.914;2024-02-15T16:21:08;11.77;;;9.43;;
18677;SDS011;9469;51.114;13.914;2024-02-15T16:26:16;13.13;;;9.93;;
18677;SDS011;9469;51.114;13.914;2024-02-15T16:31:24;13.73;;;10.67;;
18677;SDS011;9469;51.114;13.914;2024-02-15T16:36:29;14.43;;;10.03;;
18677;SDS011;9469;51.114;13.914;2024-02-15T16:41:37;14.33;;;10.50;;
18677;SDS011;9469;51.114;13.914;2024-02-15T16:46:43;16.57;;;11.77;;
18677;SDS011;9469;51.114;13.914;2024-02-15T16:51:49;17.63;;;12.40;;
18677;SDS011;9469;51.114;13.914;2024-02-15T16:56:57;15.67;;;11.40;;
18677;SDS011;9469;51.114;13.914;2024-02-15T17:02:15;14.97;;;12.03;;
18677;SDS011;9469;51.114;13.914;2024-02-15T17:07:21;15.53;;;12.03;;
18677;SDS011;9469;51.114;13.914;2024-02-15T17:12:30;18.17;;;12.40;;
18677;SDS011;9469;51.114;13.914;2024-02-15T17:17:40;15.33;;;11.63;;
18677;SDS011;9469;51.114;13.914;2024-02-15T17:22:47;16.93;;;12.67;;
18677;SDS011;9469;51.114;13.914;2024-02-15T17:27:57;15.70;;;11.33;;
18677;SDS011;9469;51.114;13.914;2024-02-15T17:33:03;13.50;;;11.40;;
18677;SDS011;9469;51.114;13.914;2024-02-15T17:38:10;15.33;;;11.90;;
18677;SDS011;9469;51.114;13.914;2024-02-15T17:43:19;15.90;;;11.80;;
18677;SDS011;9469;51.114;13.914;2024-02-15T17:48:25;13.80;;;11.73;;
18677;SDS011;9469;51.114;13.914;2024-02-15T17:53:31;15.47;;;11.37;;
18677;SDS011;9469;51.114;13.914;2024-02-15T17:58:40;13.27;;;11.60;;
18677;SDS011;9469;51.114;13.914;2024-02-15T18:03:47;13.57;;;11.27;;
18677;SDS011;9469;51.114;13.914;2024-02-15T18:08:57;16.07;;;11.47;;
18677;SDS011;9469;51.114;13.914;2024-02-15T18:14:06;15.93;;;11.50;;
18677;SDS011;9469;51.114;13.914;2024-02-15T18:19:12;14.57;;;11.63;;
18677;SDS011;9469;51.114;13.914;2024-02-15T18:24:17;14.97;;;11.73;;
18677;SDS011;9469;51.114;13.914;2024-02-15T18:29:26;15.43;;;11.73;;
18677;SDS011;9469;51.114;13.914;2024-02-15T18:34:31;17.70;;;12.53;;
18677;SDS011;9469;51.114;13.914;2024-02-15T18:39:37;17.37;;;12.70;;
18677;SDS011;9469;51.114;13.914;2024-02-15T18:44:45;14.70;;;12.87;;
18677;SDS011;9469;51.114;13.914;2024-02-15T18:49:51;14.53;;;12.37;;
18677;SDS011;9469;51.114;13.914;2024-02-15T18:55:01;17.77;;;13.20;;
18677;SDS011;9469;51.114;13.914;2024-02-15T19:00:18;16.33;;;13.70;;
18677;SDS011;9469;51.114;13.914;2024-02-15T19:05:40;17.30;;;14.13;;
18677;SDS011;9469;51.114;13.914;2024-02-15T19:10:46;20.07;;;14.13;;
18677;SDS011;9469;51.114;13.914;2024-02-15T19:15:55;20.60;;;15.53;;
18677;SDS011;9469;51.114;13.914;2024-02-15T19:21:01;24.20;;;15.33;;
18677;SDS011;9469;51.114;13.914;2024-02-15T19:26:12;23.07;;;16.80;;
18677;SDS011;9469;51.114;13.914;2024-02-15T19:31:19;20.40;;;16.83;;
18677;SDS011;9469;51.114;13.914;2024-02-15T19:36:26;24.97;;;18.30;;
18677;SDS011;9469;51.114;13.914;2024-02-15T19:41:31;28.13;;;19.77;;
18677;SDS011;9469;51.114;13.914;2024-02-15T19:46:40;31.37;;;20.07;;
18677;SDS011;9469;51.114;13.914;2024-02-15T19:51:47;30.40;;;23.13;;
18677;SDS011;9469;51.114;13.914;2024-02-15T19:56:53;30.93;;;21.90;;
18677;SDS011;9469;51.114;13.914;2024-02-15T20:02:01;33.23;;;22.57;;
18677;SDS011;9469;51.114;13.914;2024-02-15T20:07:08;34.80;;;23.13;;
18677;SDS011;9469;51.114;13.914;2024-02-15T20:12:13;34.37;;;23.73;;
18677;SDS011;9469;51.114;13.914;2024-02-15T20:17:21;34.60;;;24.20;;
18677;SDS011;9469;51.114;13.914;2024-02-15T20:22:27;35.73;;;22.67;;
18677;SDS011;9469;51.114;13.914;2024-02-15T20:27:32;34.40;;;22.60;;
18677;SDS011;9469;51.114;13.914;2024-02-15T20:32:41;32.77;;;24.03;;
18677;SDS011;9469;51.114;13.914;2024-02-15T20:37:49;34.50;;;23.17;;
18677;SDS011;9469;51.114;13.914;2024-02-15T20:42:57;35.33;;;23.60;;
18677;SDS011;9469;51.114;13.914;2024-02-15T20:48:07;37.40;;;22.47;;
18677;SDS011;9469;51.114;13.914;2024-02-15T20:53:13;33.13;;;23.07;;
18677;SDS011;9469;51.114;13.914;2024-02-15T20:58:19;36.30;;;23.23;;
18677;SDS011;9469;51.114;13.914;2024-02-15T21:03:27;35.63;;;22.60;;
18677;SDS011;9469;51.114;13.914;2024-02-15T21:08:33;31.97;;;20.63;;
18677;SDS011;9469;51.114;13.914;2024-02-15T21:13:39;30.97;;;21.43;;
18677;SDS011;9469;51.114;13.914;2024-02-15T21:18:51;32.50;;;21.97;;
18677;SDS011;9469;51.114;13.914;2024-02-15T21:23:57;31.47;;;20.90;;
18677;SDS011;9469;51.114;13.914;2024-02-15T21:29:02;30.17;;;20.47;;
18677;SDS011;9469;51.114;13.914;2024-02-15T21:34:11;28.67;;;20.57;;
18677;SDS011;9469;51.114;13.914;2024-02-15T21:39:29;30.03;;;20.50;;
18677;SDS011;9469;51.114;13.914;2024-02-15T21:44:45;31.40;;;20.97;;
18677;SDS011;9469;51.114;13.914;2024-02-15T21:49:56;30.77;;;19.97;;
18677;SDS011;9469;51.114;13.914;2024-02-15T21:55:06;27.70;;;20.40;;
18677;SDS011;9469;51.114;13.914;2024-02-15T22:00:16;31.03;;;20.23;;
18677;SDS011;9469;51.114;13.914;2024-02-15T22:05:28;26.93;;;19.30;;
18677;SDS011;9469;51.114;13.914;2024-02-15T22:10:36;27.87;;;20.27;;
18677;SDS011;9469;51.114;13.914;2024-02-15T22:15:44;25.87;;;17.97;;
18677;SDS011;9469;51.114;13.914;2024-02-15T22:20:53;29.83;;;19.70;;
18677;SDS011;9469;51.114;13.914;2024-02-15T22:26:13;28.93;;;20.03;;
18677;SDS011;9469;51.114;13.914;2024-02-15T22:31:18;29.53;;;20.20;;
18677;SDS011;9469;51.114;13.914;2024-02-15T22:36:28;29.57;;;18.80;;
18677;SDS011;9469;51.114;13.914;2024-02-15T22:41:33;28.60;;;19.77;;
18677;SDS011;9469;51.114;13.914;2024-02-15T22:46:44;27.37;;;18.73;;
18677;SDS011;9469;51.114;13.914;2024-02-15T22:51:52;23.83;;;17.03;;
18677;SDS011;9469;51.114;13.914;2024-02-15T22:56:59;24.73;;;16.97;;
18677;SDS011;9469;51.114;13.914;2024-02-15T23:02:04;27.10;;;16.60;;
18677;SDS011;9469;51.114;13.914;2024-02-15T23:07:13;23.30;;;17.27;;
18677;SDS011;9469;51.114;13.914;2024-02-15T23:12:21;27.00;;;17.03;;
18677;SDS011;9469;51.114;13.914;2024-02-15T23:17:27;24.03;;;17.20;;
18677;SDS011;9469;51.114;13.914;2024-02-15T23:22:41;28.23;;;18.03;;
18677;SDS011;9469;51.114;13.914;2024-02-15T23:27:46;24.93;;;17.27;;
18677;SDS011;9469;51.114;13.914;2024-02-15T23:32:54;21.13;;;14.67;;
18677;SDS011;9469;51.114;13.914;2024-02-15T23:38:03;24.17;;;16.43;;
18677;SDS011;9469;51.114;13.914;2024-02-15T23:43:23;25.10;;;15.97;;
18677;SDS011;9469;51.114;13.914;2024-02-15T23:48:33;22.60;;;14.97;;
18677;SDS011;9469;51.114;13.914;2024-02-15T23:53:41;23.33;;;14.53;;
18677;SDS011;9469;51.114;13.914;2024-02-15T23:58:49;23.93;;;15.00;;
